createdAt,value
2023-04-09T00:00:02.860Z,4.9
2023-04-09T00:20:02.515Z,4.6
2023-04-09T00:40:02.917Z,4.3
2023-04-09T01:00:02.434Z,4
2023-04-09T01:20:03.060Z,3.7
2023-04-09T01:40:02.560Z,3.6
2023-04-09T02:00:02.920Z,3.3
2023-04-09T02:20:02.177Z,3
2023-04-09T02:40:02.619Z,2.8
2023-04-09T03:00:02.869Z,2.6
2023-04-09T03:20:03.228Z,2.4
2023-04-09T03:40:02.677Z,2.4
2023-04-09T04:00:03.545Z,2.7
2023-04-09T04:20:02.291Z,2.9
2023-04-09T04:40:02.780Z,3.1
2023-04-09T05:00:02.106Z,3.5
2023-04-09T05:20:02.400Z,3.4
2023-04-09T05:40:03.508Z,3.5
2023-04-09T06:00:02.942Z,3.7
2023-04-09T06:20:02.506Z,3.9
2023-04-09T06:40:03.073Z,4.2
2023-04-09T07:00:02.410Z,4.7
2023-04-09T07:20:03.063Z,5.1
2023-04-09T07:40:02.553Z,5.5
2023-04-09T08:00:03.066Z,5.7
2023-04-09T08:20:03.057Z,6.2
2023-04-09T08:40:02.561Z,6.4
2023-04-09T09:00:03.537Z,6.4
2023-04-09T09:20:03.177Z,6.8
2023-04-09T09:40:02.608Z,10
2023-04-09T10:00:03.165Z,7.5
2023-04-09T10:20:02.906Z,8.1
2023-04-09T10:40:02.315Z,8.8
2023-04-09T11:00:02.796Z,9.9
2023-04-09T11:20:02.307Z,10
2023-04-09T11:40:02.896Z,10.8
2023-04-09T12:00:04.645Z,11.7
2023-04-09T12:20:03.033Z,12.2
2023-04-09T12:40:02.399Z,13.2
2023-04-09T13:00:02.812Z,13.3
2023-04-09T13:20:02.979Z,12.4
2023-04-09T13:40:03.106Z,12.1
2023-04-09T14:00:03.066Z,12.1
2023-04-09T14:20:02.739Z,12.1
2023-04-09T14:40:02.194Z,12.2
2023-04-09T15:00:03.453Z,12.2
2023-04-09T15:20:02.182Z,12.4
2023-04-09T15:40:02.700Z,12.4
2023-04-09T16:00:03.307Z,12.4
2023-04-09T16:20:02.877Z,12.3
2023-04-09T16:40:02.358Z,12.2
2023-04-09T17:00:03.538Z,12
2023-04-09T17:20:02.777Z,11.8
2023-04-09T17:40:02.183Z,11.5
2023-04-09T18:00:02.901Z,11
2023-04-09T18:20:02.341Z,10.4
2023-04-09T18:40:03.349Z,9.9
2023-04-09T19:00:02.823Z,9.5
2023-04-09T19:20:02.458Z,9.2
2023-04-09T19:40:02.872Z,8.8
2023-04-09T20:00:02.391Z,8.4
2023-04-09T20:20:02.987Z,8
2023-04-09T20:40:02.442Z,7.6
2023-04-09T21:00:02.851Z,7.3
2023-04-09T21:20:02.687Z,7
2023-04-09T21:40:03.130Z,6.7
2023-04-09T22:00:04.092Z,6.4
2023-04-09T22:20:02.516Z,6.1
2023-04-09T22:40:02.964Z,5.8
2023-04-09T23:00:02.443Z,5.6
2023-04-09T23:20:02.871Z,5.2
2023-04-09T23:40:03.093Z,5.1
